TimeCDT,TemperatureF,Dew PointF,Humidity,Sea Level PressureIn,VisibilityMPH,Wind Direction,Wind SpeedMPH,Gust SpeedMPH,PrecipitationIn,Events,Conditions,WindDirDegrees,DateUTC
12:15 AM,81.3,70.0,68,30.02,10.0,ESE,6.9,-,N/A,,Clear,120,2013-08-04 05:15:00
12:35 AM,81.0,70.5,70,30.02,10.0,ESE,5.8,-,N/A,,Clear,110,2013-08-04 05:35:00
12:55 AM,80.6,70.3,71,30.02,10.0,ESE,5.8,-,N/A,,Clear,120,2013-08-04 05:55:00
1:15 AM,80.1,70.5,73,30.01,10.0,ESE,6.9,-,N/A,,Clear,120,2013-08-04 06:15:00
1:35 AM,79.7,70.7,74,30.01,10.0,ESE,4.6,-,N/A,,Clear,120,2013-08-04 06:35:00
1:55 AM,79.2,70.5,75,30.00,10.0,ESE,5.8,-,N/A,,Clear,120,2013-08-04 06:55:00
2:15 AM,79.2,70.7,75,30.00,10.0,SE,5.8,-,N/A,,Clear,130,2013-08-04 07:15:00
2:35 AM,78.8,70.7,76,29.99,10.0,SE,5.8,-,N/A,,Clear,130,2013-08-04 07:35:00
2:55 AM,78.4,70.2,76,29.98,10.0,SE,5.8,-,N/A,,Clear,130,2013-08-04 07:55:00
3:15 AM,77.9,69.8,76,29.98,10.0,SE,3.5,-,N/A,,Clear,140,2013-08-04 08:15:00
3:35 AM,76.8,70.3,80,29.99,10.0,Calm,Calm,-,N/A,,Clear,0,2013-08-04 08:35:00
3:55 AM,75.6,69.3,81,30.00,7.0,Calm,Calm,-,N/A,,Clear,0,2013-08-04 08:55:00
4:15 AM,74.7,68.7,82,30.01,7.0,Calm,Calm,-,N/A,,Clear,0,2013-08-04 09:15:00
4:35 AM,74.3,69.6,85,30.02,7.0,East,3.5,-,N/A,,Clear,90,2013-08-04 09:35:00
4:55 AM,74.3,70.0,86,30.02,7.0,East,3.5,-,N/A,,Clear,90,2013-08-04 09:55:00
5:15 AM,74.5,70.2,86,30.02,10.0,East,5.8,-,N/A,,Clear,100,2013-08-04 10:15:00
5:35 AM,75.2,69.8,83,30.02,10.0,SE,3.5,-,N/A,,Clear,140,2013-08-04 10:35:00
5:55 AM,74.5,68.7,82,30.02,10.0,Calm,Calm,-,N/A,,Clear,0,2013-08-04 10:55:00
6:15 AM,73.6,68.4,84,30.03,10.0,Calm,Calm,-,N/A,,Clear,0,2013-08-04 11:15:00
6:35 AM,73.0,67.8,84,30.03,10.0,Calm,Calm,-,N/A,,Clear,0,2013-08-04 11:35:00
7:55 AM,78.8,71.6,78,30.05,10.0,Calm,Calm,-,N/A,,Clear,0,2013-08-04 12:55:00
8:55 AM,84.2,69.8,62,30.06,10.0,South,4.6,-,N/A,,Clear,170,2013-08-04 13:55:00
9:45 AM,89.6,68.0,49,30.06,10.0,SSW,4.6,-,N/A,,Clear,210,2013-08-04 14:45:00
10:55 AM,93.2,68.0,44,30.05,10.0,South,4.6,-,N/A,,Clear,190,2013-08-04 15:55:00
11:55 AM,95.0,68.0,41,30.04,10.0,SSE,4.6,-,N/A,,Clear,160,2013-08-04 16:55:00
2:54 PM,102.2,62.6,27,29.98,10.0,South,6.9,-,N/A,,Scattered Clouds,170,2013-08-04 19:54:00
11:35 PM,81.5,66.4,60,29.98,10.0,SE,3.5,-,N/A,,Clear,130,2013-08-05 04:35:00
11:55 PM,80.1,66.0,62,29.97,10.0,ESE,3.5,-,N/A,,Clear,120,2013-08-05 04:55:00